sensor_id;sensor_type;location;lat;lon;timestamp;pressure;altitude;pressure_sealevel;temperature;humidity
80128;BME280;69440;52.118;5.408;2024-02-15T00:02:23;101726.59;;;11.53;100.00
80128;BME280;69440;52.118;5.408;2024-02-15T00:04:49;101720.41;;;11.51;100.00
80128;BME280;69440;52.118;5.408;2024-02-15T00:07:16;101723.97;;;11.51;100.00
80128;BME280;69440;52.118;5.408;2024-02-15T00:09:42;101723.09;;;11.51;100.00
80128;BME280;69440;52.118;5.408;2024-02-15T00:12:09;101721.34;;;11.50;100.00
80128;BME280;69440;52.118;5.408;2024-02-15T00:14:36;101715.97;;;11.50;100.00
80128;BME280;69440;52.118;5.408;2024-02-15T00:17:04;101720.56;;;11.48;100.00
80128;BME280;69440;52.118;5.408;2024-02-15T00:19:31;101716.03;;;11.48;100.00
80128;BME280;69440;52.118;5.408;2024-02-15T00:21:58;101715.19;;;11.48;100.00
80128;BME280;69440;52.118;5.408;2024-02-15T00:24:24;101720.63;;;11.46;100.00
80128;BME280;69440;52.118;5.408;2024-02-15T00:26:51;101722.38;;;11.47;100.00
80128;BME280;69440;52.118;5.408;2024-02-15T00:29:17;101721.50;;;11.47;100.00
80128;BME280;69440;52.118;5.408;2024-02-15T00:31:44;101725.06;;;11.47;100.00
80128;BME280;69440;52.118;5.408;2024-02-15T00:34:11;101725.06;;;11.47;100.00
80128;BME280;69440;52.118;5.408;2024-02-15T00:36:42;101717.94;;;11.46;100.00
80128;BME280;69440;52.118;5.408;2024-02-15T00:39:09;101723.31;;;11.46;100.00
80128;BME280;69440;52.118;5.408;2024-02-15T00:41:36;101723.31;;;11.46;100.00
80128;BME280;69440;52.118;5.408;2024-02-15T00:44:02;101718.03;;;11.45;100.00
80128;BME280;69440;52.118;5.408;2024-02-15T00:46:30;101722.53;;;11.44;100.00
80128;BME280;69440;52.118;5.408;2024-02-15T00:48:56;101716.19;;;11.45;100.00
80128;BME280;69440;52.118;5.408;2024-02-15T00:51:24;101712.56;;;11.46;100.00
80128;BME280;69440;52.118;5.408;2024-02-15T00:53:50;101706.38;;;11.44;100.00
80128;BME280;69440;52.118;5.408;2024-02-15T00:56:17;101708.28;;;11.42;100.00
80128;BME280;69440;52.118;5.408;2024-02-15T00:58:43;101705.59;;;11.42;100.00
80128;BME280;69440;52.118;5.408;2024-02-15T01:01:10;101698.31;;;11.44;100.00
80128;BME280;69440;52.118;5.408;2024-02-15T01:03:37;101703.75;;;11.43;100.00
80128;BME280;69440;52.118;5.408;2024-02-15T01:06:04;101701.94;;;11.43;100.00
80128;BME280;69440;52.118;5.408;2024-02-15T01:08:32;101700.19;;;11.42;100.00
80128;BME280;69440;52.118;5.408;2024-02-15T01:10:59;101700.19;;;11.42;100.00
80128;BME280;69440;52.118;5.408;2024-02-15T01:13:25;101700.19;;;11.42;100.00
80128;BME280;69440;52.118;5.408;2024-02-15T01:15:52;101706.47;;;11.43;100.00
80128;BME280;69440;52.118;5.408;2024-02-15T01:18:19;101705.59;;;11.42;100.00
80128;BME280;69440;52.118;5.408;2024-02-15T01:20:46;101701.16;;;11.41;100.00
80128;BME280;69440;52.118;5.408;2024-02-15T01:23:12;101702.88;;;11.42;100.00
80128;BME280;69440;52.118;5.408;2024-02-15T01:25:39;101697.59;;;11.41;100.00
80128;BME280;69440;52.118;5.408;2024-02-15T01:28:06;101700.28;;;11.41;100.00
80128;BME280;69440;52.118;5.408;2024-02-15T01:30:32;101691.31;;;11.40;100.00
80128;BME280;69440;52.118;5.408;2024-02-15T01:32:59;101690.47;;;11.40;100.00
80128;BME280;69440;52.118;5.408;2024-02-15T01:35:27;101696.72;;;11.40;100.00
80128;BME280;69440;52.118;5.408;2024-02-15T01:37:53;101688.63;;;11.40;100.00
80128;BME280;69440;52.118;5.408;2024-02-15T01:40:20;101686.81;;;11.41;100.00
80128;BME280;69440;52.118;5.408;2024-02-15T01:42:47;101689.50;;;11.41;100.00
80128;BME280;69440;52.118;5.408;2024-02-15T01:45:16;101683.25;;;11.40;100.00
80128;BME280;69440;52.118;5.408;2024-02-15T01:47:43;101686.81;;;11.41;100.00
80128;BME280;69440;52.118;5.408;2024-02-15T01:50:11;101689.50;;;11.41;100.00
80128;BME280;69440;52.118;5.408;2024-02-15T01:52:40;101685.78;;;11.43;100.00
80128;BME280;69440;52.118;5.408;2024-02-15T01:55:07;101697.44;;;11.44;100.00
80128;BME280;69440;52.118;5.408;2024-02-15T01:57:35;101691.09;;;11.45;100.00
80128;BME280;69440;52.118;5.408;2024-02-15T02:00:05;101682.16;;;11.44;100.00
80128;BME280;69440;52.118;5.408;2024-02-15T02:02:34;101687.47;;;11.46;100.00
80128;BME280;69440;52.118;5.408;2024-02-15T02:05:01;101683.81;;;11.47;100.00
80128;BME280;69440;52.118;5.408;2024-02-15T02:07:28;101668.63;;;11.46;100.00
80128;BME280;69440;52.118;5.408;2024-02-15T02:09:55;101678.44;;;11.47;100.00
80128;BME280;69440;52.118;5.408;2024-02-15T02:12:22;101672.19;;;11.46;100.00
80128;BME280;69440;52.118;5.408;2024-02-15T02:14:51;101665.94;;;11.46;100.00
80128;BME280;69440;52.118;5.408;2024-02-15T02:17:17;101668.63;;;11.46;100.00
80128;BME280;69440;52.118;5.408;2024-02-15T02:19:46;101666.00;;;11.44;100.00
80128;BME280;69440;52.118;5.408;2024-02-15T02:22:12;101657.94;;;11.44;100.00
80128;BME280;69440;52.118;5.408;2024-02-15T02:24:52;101655.31;;;11.43;100.00
80128;BME280;69440;52.118;5.408;2024-02-15T02:27:19;101657.13;;;11.42;100.00
80128;BME280;69440;52.118;5.408;2024-02-15T02:29:46;101661.66;;;11.42;100.00
80128;BME280;69440;52.118;5.408;2024-02-15T02:32:13;101659.09;;;11.39;100.00
80128;BME280;69440;52.118;5.408;2024-02-15T02:34:40;101655.47;;;11.40;100.00
80128;BME280;69440;52.118;5.408;2024-02-15T02:37:10;101646.59;;;11.38;100.00
80128;BME280;69440;52.118;5.408;2024-02-15T02:39:39;101642.16;;;11.37;100.00
80128;BME280;69440;52.118;5.408;2024-02-15T02:42:06;101654.03;;;11.33;100.00
80128;BME280;69440;52.118;5.408;2024-02-15T02:44:34;101640.69;;;11.30;100.00
80128;BME280;69440;52.118;5.408;2024-02-15T02:47:01;101655.97;;;11.29;100.00
80128;BME280;69440;52.118;5.408;2024-02-15T02:49:27;101654.16;;;11.30;100.00
80128;BME280;69440;52.118;5.408;2024-02-15T02:51:54;101666.72;;;11.29;100.00
80128;BME280;69440;52.118;5.408;2024-02-15T02:54:20;101649.72;;;11.29;100.00
80128;BME280;69440;52.118;5.408;2024-02-15T02:56:47;101646.94;;;11.30;100.00
80128;BME280;69440;52.118;5.408;2024-02-15T02:59:13;101644.34;;;11.29;100.00
80128;BME280;69440;52.118;5.408;2024-02-15T03:01:42;101650.50;;;11.31;100.00
80128;BME280;69440;52.118;5.408;2024-02-15T03:04:08;101650.59;;;11.29;100.00
80128;BME280;69440;52.118;5.408;2024-02-15T03:06:35;101650.66;;;11.28;100.00
80128;BME280;69440;52.118;5.408;2024-02-15T03:09:01;101651.53;;;11.28;100.00
80128;BME280;69440;52.118;5.408;2024-02-15T03:11:28;101649.78;;;11.27;100.00
80128;BME280;69440;52.118;5.408;2024-02-15T03:13:54;101649.72;;;11.29;100.00
80128;BME280;69440;52.118;5.408;2024-02-15T03:16:24;101657.00;;;11.27;100.00
80128;BME280;69440;52.118;5.408;2024-02-15T03:18:51;101643.53;;;11.27;100.00
80128;BME280;69440;52.118;5.408;2024-02-15T03:21:19;101633.66;;;11.27;100.00
80128;BME280;69440;52.118;5.408;2024-02-15T03:23:46;101647.19;;;11.26;100.00
80128;BME280;69440;52.118;5.408;2024-02-15T03:26:13;101642.66;;;11.26;100.00
80128;BME280;69440;52.118;5.408;2024-02-15T03:28:40;101644.56;;;11.24;100.00
80128;BME280;69440;52.118;5.408;2024-02-15T03:31:07;101640.84;;;11.27;100.00
80128;BME280;69440;52.118;5.408;2024-02-15T03:33:33;101631.97;;;11.25;100.00
80128;BME280;69440;52.118;5.408;2024-02-15T03:36:01;101645.34;;;11.26;100.00
80128;BME280;69440;52.118;5.408;2024-02-15T03:38:28;101632.84;;;11.25;100.00
80128;BME280;69440;52.118;5.408;2024-02-15T03:40:55;101631.09;;;11.24;100.00
80128;BME280;69440;52.118;5.408;2024-02-15T03:43:22;101634.75;;;11.23;100.00
80128;BME280;69440;52.118;5.408;2024-02-15T03:45:50;101631.19;;;11.23;100.00
80128;BME280;69440;52.118;5.408;2024-02-15T03:48:17;101632.13;;;11.22;100.00
80128;BME280;69440;52.118;5.408;2024-02-15T03:50:44;101639.34;;;11.21;100.00
80128;BME280;69440;52.118;5.408;2024-02-15T03:53:11;101633.94;;;11.21;100.00
80128;BME280;69440;52.118;5.408;2024-02-15T03:55:38;101629.53;;;11.20;100.00
80128;BME280;69440;52.118;5.408;2024-02-15T03:58:04;101629.59;;;11.18;100.00
80128;BME280;69440;52.118;5.408;2024-02-15T04:00:31;101626.97;;;11.17;100.00
80128;BME280;69440;52.118;5.408;2024-02-15T04:02:57;101627.84;;;11.17;100.00
80128;BME280;69440;52.118;5.408;2024-02-15T04:05:24;101623.41;;;11.16;100.00
80128;BME280;69440;52.118;5.408;2024-02-15T04:07:50;101617.09;;;11.17;100.00
80128;BME280;69440;52.118;5.408;2024-02-15T04:10:17;101625.09;;;11.19;100.00
80128;BME280;69440;52.118;5.408;2024-02-15T04:12:44;101631.34;;;11.19;100.00
80128;BME280;69440;52.118;5.408;2024-02-15T04:15:11;101617.81;;;11.21;100.00
80128;BME280;69440;52.118;5.408;2024-02-15T04:17:43;101625.88;;;11.21;100.00
80128;BME280;69440;52.118;5.408;2024-02-15T04:20:11;101631.25;;;11.21;100.00
80128;BME280;69440;52.118;5.408;2024-02-15T04:22:39;101626.69;;;11.23;100.00
80128;BME280;69440;52.118;5.408;2024-02-15T04:25:08;101622.09;;;11.25;100.00
80128;BME280;69440;52.118;5.408;2024-02-15T04:27:37;101619.47;;;11.24;100.00
80128;BME280;69440;52.118;5.408;2024-02-15T04:30:03;101621.13;;;11.26;100.00
80128;BME280;69440;52.118;5.408;2024-02-15T04:32:32;101611.25;;;11.27;100.00
80128;BME280;69440;52.118;5.408;2024-02-15T04:35:01;101619.41;;;11.25;100.00
80128;BME280;69440;52.118;5.408;2024-02-15T04:37:28;101613.00;;;11.28;100.00
80128;BME280;69440;52.118;5.408;2024-02-15T04:39:57;101613.00;;;11.28;100.00
80128;BME280;69440;52.118;5.408;2024-02-15T04:42:23;101615.69;;;11.28;100.00
80128;BME280;69440;52.118;5.408;2024-02-15T04:44:53;101613.84;;;11.28;100.00
80128;BME280;69440;52.118;5.408;2024-02-15T04:47:20;101604.84;;;11.29;100.00
80128;BME280;69440;52.118;5.408;2024-02-15T04:49:47;101609.19;;;11.32;100.00
80128;BME280;69440;52.118;5.408;2024-02-15T04:52:13;101606.47;;;11.33;100.00
80128;BME280;69440;52.118;5.408;2024-02-15T04:54:40;101609.16;;;11.33;100.00
80128;BME280;69440;52.118;5.408;2024-02-15T04:57:07;101608.28;;;11.33;100.00
80128;BME280;69440;52.118;5.408;2024-02-15T04:59:38;101607.34;;;11.34;100.00
80128;BME280;69440;52.118;5.408;2024-02-15T05:02:05;101601.94;;;11.34;100.00
80128;BME280;69440;52.118;5.408;2024-02-15T05:04:33;101587.53;;;11.35;100.00
80128;BME280;69440;52.118;5.408;2024-02-15T05:07:02;101593.78;;;11.35;100.00
80128;BME280;69440;52.118;5.408;2024-02-15T05:09:30;101592.84;;;11.36;100.00
80128;BME280;69440;52.118;5.408;2024-02-15T05:11:59;101589.28;;;11.36;100.00
80128;BME280;69440;52.118;5.408;2024-02-15T05:14:26;101597.28;;;11.37;100.00
80128;BME280;69440;52.118;5.408;2024-02-15T05:16:53;101594.66;;;11.36;100.00
80128;BME280;69440;52.118;5.408;2024-02-15T05:19:19;101599.97;;;11.37;100.00
80128;BME280;69440;52.118;5.408;2024-02-15T05:21:46;101606.22;;;11.38;100.00
80128;BME280;69440;52.118;5.408;2024-02-15T05:24:14;101608.91;;;11.38;100.00
80128;BME280;69440;52.118;5.408;2024-02-15T05:26:42;101604.31;;;11.40;100.00
80128;BME280;69440;52.118;5.408;2024-02-15T05:29:10;101607.03;;;11.40;100.00
80128;BME280;69440;52.118;5.408;2024-02-15T05:31:37;101610.59;;;11.40;100.00
80128;BME280;69440;52.118;5.408;2024-02-15T05:34:07;101607.81;;;11.42;100.00
80128;BME280;69440;52.118;5.408;2024-02-15T05:36:35;101596.19;;;11.41;100.00
80128;BME280;69440;52.118;5.408;2024-02-15T05:39:02;101590.72;;;11.43;100.00
80128;BME280;69440;52.118;5.408;2024-02-15T05:41:29;101574.56;;;11.43;100.00
80128;BME280;69440;52.118;5.408;2024-02-15T05:43:56;101567.44;;;11.42;100.00
80128;BME280;69440;52.118;5.408;2024-02-15T05:46:24;101540.59;;;11.40;100.00
80128;BME280;69440;52.118;5.408;2024-02-15T05:48:51;101527.06;;;11.42;100.00
80128;BME280;69440;52.118;5.408;2024-02-15T05:51:22;101509.09;;;11.42;100.00
80128;BME280;69440;52.118;5.408;2024-02-15T05:53:49;101516.38;;;11.40;100.00
80128;BME280;69440;52.118;5.408;2024-02-15T05:56:16;101537.91;;;11.40;100.00
80128;BME280;69440;52.118;5.408;2024-02-15T05:58:43;101544.94;;;11.43;100.00
80128;BME280;69440;52.118;5.408;2024-02-15T06:01:09;101537.81;;;11.42;100.00
80128;BME280;69440;52.118;5.408;2024-02-15T06:03:39;101536.00;;;11.42;100.00
80128;BME280;69440;52.118;5.408;2024-02-15T06:06:07;101541.38;;;11.42;100.00
80128;BME280;69440;52.118;5.408;2024-02-15T06:08:35;101548.59;;;11.42;100.00
80128;BME280;69440;52.118;5.408;2024-02-15T06:11:03;101550.34;;;11.43;100.00
80128;BME280;69440;52.118;5.408;2024-02-15T06:13:30;101551.22;;;11.43;100.00
80128;BME280;69440;52.118;5.408;2024-02-15T06:15:57;101535.06;;;11.43;100.00
80128;BME280;69440;52.118;5.408;2024-02-15T06:18:27;101544.94;;;11.43;100.00
80128;BME280;69440;52.118;5.408;2024-02-15T06:20:56;101545.81;;;11.43;100.00
80128;BME280;69440;52.118;5.408;2024-02-15T06:23:28;101544.94;;;11.43;100.00
80128;BME280;69440;52.118;5.408;2024-02-15T06:25:56;101551.28;;;11.42;100.00
80128;BME280;69440;52.118;5.408;2024-02-15T06:28:24;101555.78;;;11.41;100.00
80128;BME280;69440;52.118;5.408;2024-02-15T06:31:10;101562.94;;;11.42;100.00
80128;BME280;69440;52.118;5.408;2024-02-15T06:33:58;101558.41;;;11.43;100.00
80128;BME280;69440;52.118;5.408;2024-02-15T06:36:48;101559.28;;;11.43;100.00
80128;BME280;69440;52.118;5.408;2024-02-15T06:39:33;101557.47;;;11.44;100.00
80128;BME280;69440;52.118;5.408;2024-02-15T06:42:15;101550.34;;;11.43;100.00
80128;BME280;69440;52.118;5.408;2024-02-15T06:44:47;101558.41;;;11.43;100.00
80128;BME280;69440;52.118;5.408;2024-02-15T06:47:14;101536.00;;;11.42;100.00
80128;BME280;69440;52.118;5.408;2024-02-15T06:49:45;101536.97;;;11.41;100.00
80128;BME280;69440;52.118;5.408;2024-02-15T06:52:12;101534.19;;;11.43;100.00
80128;BME280;69440;52.118;5.408;2024-02-15T06:54:40;101539.56;;;11.43;100.00
80128;BME280;69440;52.118;5.408;2024-02-15T06:57:07;101534.97;;;11.45;100.00
80128;BME280;69440;52.118;5.408;2024-02-15T06:59:34;101528.72;;;11.44;100.00
80128;BME280;69440;52.118;5.408;2024-02-15T07:02:01;101526.97;;;11.43;100.00
80128;BME280;69440;52.118;5.408;2024-02-15T07:04:41;101541.31;;;11.44;100.00
80128;BME280;69440;52.118;5.408;2024-02-15T07:07:18;101534.19;;;11.43;100.00
80128;BME280;69440;52.118;5.408;2024-02-15T07:09:44;101543.13;;;11.43;100.00
80128;BME280;69440;52.118;5.408;2024-02-15T07:12:11;101544.78;;;11.46;100.00
80128;BME280;69440;52.118;5.408;2024-02-15T07:14:37;101546.53;;;11.47;100.00
80128;BME280;69440;52.118;5.408;2024-02-15T07:17:04;101550.97;;;11.48;100.00
80128;BME280;69440;52.118;5.408;2024-02-15T07:19:30;101558.97;;;11.49;100.00
80128;BME280;69440;52.118;5.408;2024-02-15T07:22:02;101559.91;;;11.48;100.00
80128;BME280;69440;52.118;5.408;2024-02-15T07:24:29;101541.06;;;11.48;100.00
80128;BME280;69440;52.118;5.408;2024-02-15T07:26:58;101551.84;;;11.48;100.00
80128;BME280;69440;52.118;5.408;2024-02-15T07:29:24;101550.97;;;11.48;100.00
80128;BME280;69440;52.118;5.408;2024-02-15T07:31:51;101565.22;;;11.50;100.00
80128;BME280;69440;52.118;5.408;2024-02-15T07:34:18;101579.38;;;11.54;100.00
80128;BME280;69440;52.118;5.408;2024-02-15T07:36:46;101583.91;;;11.53;100.00
80128;BME280;69440;52.118;5.408;2024-02-15T07:39:14;101594.66;;;11.53;100.00
80128;BME280;69440;52.118;5.408;2024-02-15T07:41:54;101595.53;;;11.54;100.00
80128;BME280;69440;52.118;5.408;2024-02-15T07:44:21;101592.84;;;11.54;100.00
80128;BME280;69440;52.118;5.408;2024-02-15T07:46:48;101561.56;;;11.51;100.00
80128;BME280;69440;52.118;5.408;2024-02-15T07:49:16;101566.97;;;11.51;100.00
80128;BME280;69440;52.118;5.408;2024-02-15T07:51:46;101591.19;;;11.51;100.00
80128;BME280;69440;52.118;5.408;2024-02-15T07:54:19;101572.25;;;11.52;100.00
80128;BME280;69440;52.118;5.408;2024-02-15T07:56:49;101567.81;;;11.51;100.00
80128;BME280;69440;52.118;5.408;2024-02-15T07:59:16;101581.28;;;11.51;100.00
80128;BME280;69440;52.118;5.408;2024-02-15T08:01:48;101595.53;;;11.54;100.00
80128;BME280;69440;52.118;5.408;2024-02-15T08:04:17;101589.44;;;11.50;100.00
80128;BME280;69440;52.118;5.408;2024-02-15T08:06:44;101587.69;;;11.49;100.00
80128;BME280;69440;52.118;5.408;2024-02-15T08:09:11;101572.34;;;11.51;100.00
80128;BME280;69440;52.118;5.408;2024-02-15T08:11:40;101550.81;;;11.51;100.00
80128;BME280;69440;52.118;5.408;2024-02-15T08:14:07;101536.56;;;11.49;100.00
80128;BME280;69440;52.118;5.408;2024-02-15T08:16:39;101556.28;;;11.49;100.00
80128;BME280;69440;52.118;5.408;2024-02-15T08:19:07;101561.72;;;11.48;100.00
80128;BME280;69440;52.118;5.408;2024-02-15T08:21:34;101545.59;;;11.48;100.00
80128;BME280;69440;52.118;5.408;2024-02-15T08:24:03;101540.19;;;11.48;100.00
80128;BME280;69440;52.118;5.408;2024-02-15T08:26:33;101549.16;;;11.48;100.00
80128;BME280;69440;52.118;5.408;2024-02-15T08:29:02;101549.94;;;11.50;100.00
80128;BME280;69440;52.118;5.408;2024-02-15T08:31:29;101553.41;;;11.52;100.00
80128;BME280;69440;52.118;5.408;2024-02-15T08:34:01;101554.28;;;11.53;100.00
80128;BME280;69440;52.118;5.408;2024-02-15T08:36:29;101566.88;;;11.52;100.00
80128;BME280;69440;52.118;5.408;2024-02-15T08:38:57;101574.97;;;11.52;100.00
80128;BME280;69440;52.118;5.408;2024-02-15T08:41:23;101558.72;;;11.54;100.00
80128;BME280;69440;52.118;5.408;2024-02-15T08:43:53;101543.34;;;11.56;100.00
80128;BME280;69440;52.118;5.408;2024-02-15T08:46:19;101545.09;;;11.57;100.00
80128;BME280;69440;52.118;5.408;2024-02-15T08:48:46;101546.06;;;11.56;100.00
80128;BME280;69440;52.118;5.408;2024-02-15T08:51:13;101544.31;;;11.55;100.00
80128;BME280;69440;52.118;5.408;2024-02-15T08:53:40;101524.44;;;11.58;100.00
80128;BME280;69440;52.118;5.408;2024-02-15T08:56:07;101531.47;;;11.60;100.00
80128;BME280;69440;52.118;5.408;2024-02-15T08:58:36;101524.34;;;11.59;100.00
80128;BME280;69440;52.118;5.408;2024-02-15T09:01:04;101511.75;;;11.60;100.00
80128;BME280;69440;52.118;5.408;2024-02-15T09:03:31;101511.75;;;11.60;100.00
80128;BME280;69440;52.118;5.408;2024-02-15T09:05:57;101513.50;;;11.61;100.00
80128;BME280;69440;52.118;5.408;2024-02-15T09:08:25;101512.63;;;11.60;100.00
80128;BME280;69440;52.118;5.408;2024-02-15T09:10:52;101524.28;;;11.61;100.00
80128;BME280;69440;52.118;5.408;2024-02-15T09:13:20;101527.84;;;11.61;100.00
80128;BME280;69440;52.118;5.408;2024-02-15T09:15:46;101534.03;;;11.63;100.00
80128;BME280;69440;52.118;5.408;2024-02-15T09:18:13;101526.88;;;11.62;100.00
80128;BME280;69440;52.118;5.408;2024-02-15T09:20:41;101528.66;;;11.63;100.00
80128;BME280;69440;52.118;5.408;2024-02-15T09:23:11;101549.25;;;11.64;100.00
80128;BME280;69440;52.118;5.408;2024-02-15T09:25:38;101525.88;;;11.65;100.00
80128;BME280;69440;52.118;5.408;2024-02-15T09:28:05;101529.44;;;11.65;100.00
80128;BME280;69440;52.118;5.408;2024-02-15T09:30:31;101527.63;;;11.66;100.00
80128;BME280;69440;52.118;5.408;2024-02-15T09:32:59;101526.66;;;11.67;100.00
80128;BME280;69440;52.118;5.408;2024-02-15T09:35:26;101522.16;;;11.67;100.00
80128;BME280;69440;52.118;5.408;2024-02-15T09:37:53;101531.97;;;11.68;100.00
80128;BME280;69440;52.118;5.408;2024-02-15T09:40:21;101528.31;;;11.69;100.00
80128;BME280;69440;52.118;5.408;2024-02-15T09:42:52;101535.53;;;11.69;100.00
80128;BME280;69440;52.118;5.408;2024-02-15T09:45:19;101528.31;;;11.69;100.00
80128;BME280;69440;52.118;5.408;2024-02-15T09:47:47;101528.16;;;11.72;100.00
80128;BME280;69440;52.118;5.408;2024-02-15T09:50:17;101537.09;;;11.73;100.00
80128;BME280;69440;52.118;5.408;2024-02-15T09:52:51;101532.50;;;11.75;100.00
80128;BME280;69440;52.118;5.408;2024-02-15T09:55:18;101527.13;;;11.75;100.00
80128;BME280;69440;52.118;5.408;2024-02-15T09:57:46;101534.16;;;11.77;100.00
80128;BME280;69440;52.118;5.408;2024-02-15T10:00:13;101539.50;;;11.79;100.00
80128;BME280;69440;52.118;5.408;2024-02-15T10:02:41;101537.69;;;11.79;100.00
80128;BME280;69440;52.118;5.408;2024-02-15T10:05:12;101538.69;;;11.77;100.00
80128;BME280;69440;52.118;5.408;2024-02-15T10:07:39;101532.50;;;11.75;100.00
80128;BME280;69440;52.118;5.408;2024-02-15T10:10:17;101538.69;;;11.77;100.00
80128;BME280;69440;52.118;5.408;2024-02-15T10:12:44;101537.75;;;11.78;100.00
80128;BME280;69440;52.118;5.408;2024-02-15T10:15:10;101542.13;;;11.80;100.00
80128;BME280;69440;52.118;5.408;2024-02-15T10:17:56;101547.34;;;11.84;100.00
80128;BME280;69440;52.118;5.408;2024-02-15T10:20:24;101539.88;;;11.89;100.00
80128;BME280;69440;52.118;5.408;2024-02-15T10:23:11;101533.31;;;11.94;100.00
80128;BME280;69440;52.118;5.408;2024-02-15T10:25:38;101543.84;;;11.99;100.00
80128;BME280;69440;52.118;5.408;2024-02-15T10:28:07;101544.63;;;12.01;100.00
80128;BME280;69440;52.118;5.408;2024-02-15T10:30:35;101536.38;;;12.04;100.00
80128;BME280;69440;52.118;5.408;2024-02-15T10:33:03;101536.47;;;12.02;100.00
80128;BME280;69440;52.118;5.408;2024-02-15T10:35:31;101529.09;;;12.06;100.00
80128;BME280;69440;52.118;5.408;2024-02-15T10:38:08;101534.38;;;12.07;100.00
80128;BME280;69440;52.118;5.408;2024-02-15T10:40:37;101540.47;;;12.11;100.00
80128;BME280;69440;52.118;5.408;2024-02-15T10:43:04;101542.22;;;12.12;100.00
80128;BME280;69440;52.118;5.408;2024-02-15T10:45:35;101526.50;;;12.20;100.00
80128;BME280;69440;52.118;5.408;2024-02-15T10:48:09;101537.75;;;12.28;100.00
80128;BME280;69440;52.118;5.408;2024-02-15T10:50:39;101522.38;;;12.30;100.00
80128;BME280;69440;52.118;5.408;2024-02-15T10:53:14;101526.81;;;12.31;100.00
80128;BME280;69440;52.118;5.408;2024-02-15T10:58:33;101515.50;;;12.40;100.00
80128;BME280;69440;52.118;5.408;2024-02-15T11:01:09;101517.75;;;12.48;100.00
80128;BME280;69440;52.118;5.408;2024-02-15T11:03:42;101511.97;;;12.56;100.00
80128;BME280;69440;52.118;5.408;2024-02-15T11:06:14;101512.97;;;12.53;100.00
80128;BME280;69440;52.118;5.408;2024-02-15T11:08:42;101511.31;;;12.51;100.00
80128;BME280;69440;52.118;5.408;2024-02-15T11:11:11;101518.22;;;12.56;100.00
80128;BME280;69440;52.118;5.408;2024-02-15T11:13:40;101519.00;;;12.58;100.00
80128;BME280;69440;52.118;5.408;2024-02-15T11:16:08;101515.44;;;12.58;100.00
80128;BME280;69440;52.118;5.408;2024-02-15T11:18:48;101522.56;;;12.59;100.00
80128;BME280;69440;52.118;5.408;2024-02-15T11:21:16;101511.09;;;12.55;100.00
80128;BME280;69440;52.118;5.408;2024-02-15T11:23:44;101514.72;;;12.54;100.00
80128;BME280;69440;52.118;5.408;2024-02-15T11:26:43;101519.22;;;12.54;100.00
80128;BME280;69440;52.118;5.408;2024-02-15T11:32:42;101507.44;;;12.56;100.00
80128;BME280;69440;52.118;5.408;2024-02-15T11:40:22;101499.00;;;12.62;100.00
80128;BME280;69440;52.118;5.408;2024-02-15T11:42:51;101503.59;;;12.60;100.00
80128;BME280;69440;52.118;5.408;2024-02-15T11:45:20;101489.16;;;12.61;100.00
80128;BME280;69440;52.118;5.408;2024-02-15T11:47:49;101506.31;;;12.60;100.00
80128;BME280;69440;52.118;5.408;2024-02-15T11:50:18;101488.22;;;12.62;100.00
80128;BME280;69440;52.118;5.408;2024-02-15T11:52:45;101487.06;;;12.66;100.00
80128;BME280;69440;52.118;5.408;2024-02-15T11:55:21;101478.88;;;12.68;100.00
80128;BME280;69440;52.118;5.408;2024-02-15T11:57:58;101478.72;;;12.71;100.00
80128;BME280;69440;52.118;5.408;2024-02-15T12:00:39;101481.50;;;12.69;100.00
80128;BME280;69440;52.118;5.408;2024-02-15T12:03:25;101476.19;;;12.68;100.00
80128;BME280;69440;52.118;5.408;2024-02-15T12:06:30;101470.72;;;12.69;100.00
80128;BME280;69440;52.118;5.408;2024-02-15T12:09:19;101474.97;;;12.73;100.00
80128;BME280;69440;52.118;5.408;2024-02-15T12:12:05;101474.97;;;12.73;100.00
80128;BME280;69440;52.118;5.408;2024-02-15T12:15:00;101461.19;;;12.78;100.00
80128;BME280;69440;52.118;5.408;2024-02-15T12:17:46;101459.19;;;12.82;100.00
80128;BME280;69440;52.118;5.408;2024-02-15T12:20:31;101458.16;;;12.84;100.00
80128;BME280;69440;52.118;5.408;2024-02-15T12:22:58;101448.16;;;12.86;100.00
80128;BME280;69440;52.118;5.408;2024-02-15T12:25:26;101455.13;;;12.90;100.00
80128;BME280;69440;52.118;5.408;2024-02-15T12:27:54;101442.31;;;12.94;100.00
80128;BME280;69440;52.118;5.408;2024-02-15T12:30:21;101442.22;;;12.95;100.00
80128;BME280;69440;52.118;5.408;2024-02-15T12:32:49;101442.03;;;12.98;100.00
80128;BME280;69440;52.118;5.408;2024-02-15T12:35:21;101419.28;;;13.02;100.00
80128;BME280;69440;52.118;5.408;2024-02-15T12:40:30;101432.69;;;13.20;100.00
80128;BME280;69440;52.118;5.408;2024-02-15T12:42:57;101424.03;;;13.29;100.00
80128;BME280;69440;52.118;5.408;2024-02-15T12:45:25;101410.34;;;13.46;100.00
80128;BME280;69440;52.118;5.408;2024-02-15T12:47:54;101414.78;;;13.76;100.00
80128;BME280;69440;52.118;5.408;2024-02-15T12:50:28;101415.44;;;14.22;100.00
80128;BME280;69440;52.118;5.408;2024-02-15T12:52:55;101404.41;;;14.93;100.00
80128;BME280;69440;52.118;5.408;2024-02-15T12:55:29;101410.25;;;15.77;100.00
80128;BME280;69440;52.118;5.408;2024-02-15T12:58:02;101403.59;;;16.43;100.00
80128;BME280;69440;52.118;5.408;2024-02-15T13:00:31;101389.84;;;17.63;100.00
80128;BME280;69440;52.118;5.408;2024-02-15T13:03:03;101392.56;;;18.41;100.00
80128;BME280;69440;52.118;5.408;2024-02-15T13:05:31;101380.53;;;19.61;100.00